createdAt,value
2019-01-19T07:30:57.001Z,101423.75
2019-01-19T07:52:48.792Z,101534.02
2019-01-19T07:55:21.547Z,101579.30
2019-01-19T07:57:54.304Z,101586.11
2019-01-19T08:00:30.681Z,101601.69
2019-01-19T08:03:03.553Z,101601.25
2019-01-19T08:05:36.419Z,101601.92
2019-01-19T08:08:09.675Z,101600.05
2019-01-19T08:10:44.185Z,101601.48
2019-01-19T08:13:17.037Z,101599.75
2019-01-19T08:15:49.954Z,101599.85
2019-01-19T08:18:23.863Z,101604.05
2019-01-19T08:20:56.793Z,101605.41
2019-01-19T08:23:29.544Z,101610.18
2019-01-19T08:26:02.443Z,101608.28
2019-01-19T08:28:35.209Z,101605.98
2019-01-19T08:31:08.272Z,101605.98
2019-01-19T08:33:41.199Z,101609.28
2019-01-19T08:36:14.620Z,101603.64
2019-01-19T08:38:47.479Z,101599.23
2019-01-19T08:41:20.219Z,101594.52
2019-01-19T08:43:55.621Z,101593.39
2019-01-19T08:46:28.435Z,101596.08
2019-01-19T08:49:03.369Z,101597.34
2019-01-19T08:51:36.560Z,101600.51
2019-01-19T08:54:09.553Z,101597.73
2019-01-19T08:56:42.325Z,101599.72
2019-01-19T08:59:15.120Z,101586.51
2019-01-19T09:01:51.024Z,101592.62
2019-01-19T09:04:23.772Z,101602.41
2019-01-19T09:06:56.575Z,101593.88
2019-01-19T09:09:29.356Z,101592.34
2019-01-19T09:12:02.170Z,101599.37
2019-01-19T09:14:34.964Z,101602.41
2019-01-19T09:17:07.768Z,101606.08
2019-01-19T09:19:40.639Z,101604.94
2019-01-19T09:22:26.057Z,101590.42
2019-01-19T09:24:58.816Z,101590.42
2019-01-19T09:27:31.576Z,101595.05
2019-01-19T09:30:04.941Z,101594.73
2019-01-19T09:32:37.755Z,101591.36
2019-01-19T09:35:10.918Z,101582.39
2019-01-19T09:37:44.028Z,101587.14
2019-01-19T09:40:18.375Z,101588.41
2019-01-19T09:42:52.067Z,101586.94
2019-01-19T09:45:25.342Z,101574.23
2019-01-19T09:47:58.293Z,101563.84
2019-01-19T09:50:31.054Z,101566.84
2019-01-19T09:53:08.670Z,101566.84
2019-01-19T09:56:12.848Z,101566.84
2019-01-19T09:59:14.190Z,101566.84
2019-01-19T10:01:57.848Z,101573.47
2019-01-19T10:04:44.478Z,101573.47
2019-01-19T10:08:13.285Z,101573.47
2019-01-19T10:10:46.516Z,101573.47
2019-01-19T10:13:26.443Z,101568.87
2019-01-19T10:16:01.329Z,101568.87
2019-01-19T10:18:42.021Z,101572.45
2019-01-19T10:21:14.852Z,101569.28
2019-01-19T10:23:47.620Z,101553.07
2019-01-19T10:26:20.414Z,101554.51
2019-01-19T10:28:53.521Z,101550.66
2019-01-19T10:31:26.241Z,101551.47
2019-01-19T10:33:59.033Z,101551.63
2019-01-19T10:36:31.803Z,101545.59
2019-01-19T10:39:07.015Z,101554.91
2019-01-19T10:41:49.138Z,101551.68
2019-01-19T10:44:25.038Z,101547.55
2019-01-19T10:46:57.796Z,101557.38
2019-01-19T10:49:30.576Z,101547.64
2019-01-19T10:52:03.617Z,101551.41
2019-01-19T10:54:36.465Z,101542.95
2019-01-19T10:57:09.308Z,101548.92
2019-01-19T10:59:42.099Z,101539.92
2019-01-19T11:02:14.891Z,101538.83
2019-01-19T11:04:48.745Z,101547.48
2019-01-19T11:07:22.616Z,101542.05
2019-01-19T11:09:56.388Z,101539.77
2019-01-19T11:12:36.273Z,101536.92
2019-01-19T11:15:13.906Z,101542.73
2019-01-19T11:17:58.517Z,101547.29
2019-01-19T11:20:31.891Z,101536.22
2019-01-19T11:23:06.049Z,101538.36
2019-01-19T11:25:39.282Z,101544.16
2019-01-19T11:28:12.132Z,101542.13
2019-01-19T11:30:44.963Z,101534.61
2019-01-19T11:33:17.685Z,101530.84
2019-01-19T11:35:50.519Z,101521.25
2019-01-19T11:38:23.203Z,101527.56
2019-01-19T11:40:57.843Z,101521.84
2019-01-19T11:43:31.365Z,101522.08
2019-01-19T11:46:04.175Z,101518.05
2019-01-19T11:48:37.190Z,101522.63
2019-01-19T11:51:10.065Z,101513.55
2019-01-19T11:53:43.054Z,101512.91
2019-01-19T11:56:15.951Z,101512.65
2019-01-19T11:58:48.834Z,101510.16
2019-01-19T12:01:21.604Z,101506.60
2019-01-19T12:03:54.529Z,101510.89
2019-01-19T12:06:27.373Z,101509.35
2019-01-19T12:09:00.543Z,101513.52
2019-01-19T12:11:34.996Z,101516.03
2019-01-19T12:14:07.778Z,101511.47
2019-01-19T12:16:40.551Z,101510.30
2019-01-19T12:19:14.889Z,101512.33
2019-01-19T12:21:48.059Z,101507.28
2019-01-19T12:24:21.258Z,101514.83
2019-01-19T12:26:54.694Z,101511.67
2019-01-19T12:29:27.994Z,101499.72
2019-01-19T12:32:11.321Z,101502.72
2019-01-19T12:34:47.967Z,101505.67
2019-01-19T12:37:25.887Z,101501.87
2019-01-19T12:40:01.216Z,101498.53
2019-01-19T12:42:36.526Z,101493.84
2019-01-19T12:45:21.550Z,101498.05
2019-01-19T12:47:57.618Z,101488.02
2019-01-19T12:50:39.606Z,101494.92
2019-01-19T12:53:15.965Z,101492.97
2019-01-19T12:55:51.725Z,101496.62
2019-01-19T12:58:25.416Z,101497.47
2019-01-19T13:01:03.013Z,101503.23
2019-01-19T13:03:36.734Z,101505.14
2019-01-19T13:07:15.706Z,101500.95
2019-01-19T13:10:17.856Z,101490.97
2019-01-19T13:13:07.374Z,101501.13
2019-01-19T13:16:48.467Z,101500.60
2019-01-19T13:20:04.004Z,101496.57
2019-01-19T13:23:57.630Z,101495.28
2019-01-19T13:27:13.782Z,101505.42
2019-01-19T13:30:35.905Z,101505.44
2019-01-19T13:33:59.164Z,101507.20
2019-01-19T13:36:52.343Z,101502.54
2019-01-19T13:40:24.652Z,101510.44
2019-01-19T13:44:14.904Z,101506.02
2019-01-19T13:47:40.868Z,101507.47
2019-01-19T13:50:46.094Z,101501.03
2019-01-19T13:54:22.996Z,101502.73
2019-01-19T13:58:08.223Z,101499.70
2019-01-19T14:01:25.174Z,101498.27
2019-01-19T14:04:51.047Z,101494.65
2019-01-19T14:08:19.939Z,101491.98
2019-01-19T14:11:37.051Z,101489.43
2019-01-19T14:14:58.125Z,101493.40
2019-01-19T14:18:44.121Z,101490.13
2019-01-19T14:22:31.452Z,101488.41
2019-01-19T14:25:50.327Z,101476.92
2019-01-19T14:29:25.277Z,101482.11
2019-01-19T14:32:49.877Z,101473.44
2019-01-19T14:36:28.068Z,101471.98
2019-01-19T14:39:54.673Z,101479.96
2019-01-19T14:43:17.114Z,101482.47
2019-01-19T14:46:44.739Z,101475.59
2019-01-19T14:50:57.008Z,101476.75
2019-01-19T14:54:27.839Z,101474.02
2019-01-19T14:58:03.124Z,101471.35
2019-01-19T15:01:23.025Z,101473.05
2019-01-19T15:05:10.920Z,101474.96
2019-01-19T15:08:19.065Z,101476.25
2019-01-19T15:11:33.055Z,101475.47
2019-01-19T15:15:02.734Z,101472.70
2019-01-19T15:18:56.439Z,101473.11
2019-01-19T15:22:27.181Z,101466.75
2019-01-19T15:25:22.887Z,101468.96
2019-01-19T15:29:11.065Z,101468.89
2019-01-19T15:32:47.829Z,101465.84
2019-01-19T15:36:00.129Z,101470.48
2019-01-19T15:39:11.044Z,101467.53
2019-01-19T15:42:41.047Z,101470.11
2019-01-19T15:46:00.548Z,101475.26
2019-01-19T15:49:58.902Z,101477.84
2019-01-19T15:52:54.059Z,101466.13
2019-01-19T15:56:12.779Z,101471.16
2019-01-19T15:59:40.364Z,101474.73
2019-01-19T16:02:56.226Z,101469.04
2019-01-19T16:06:52.926Z,101467.52
2019-01-19T16:10:46.644Z,101471.41
2019-01-19T16:14:14.824Z,101472.23
2019-01-19T16:17:22.462Z,101473.62
2019-01-19T16:20:32.270Z,101466.22
2019-01-19T16:24:07.091Z,101475.05
2019-01-19T16:27:27.424Z,101477.33
2019-01-19T16:31:08.725Z,101476.03
2019-01-19T16:34:33.230Z,101480.33
2019-01-19T16:38:06.768Z,101478.01
2019-01-19T16:41:50.175Z,101482.32
2019-01-19T16:45:19.784Z,101482.57
2019-01-19T16:48:42.125Z,101477.60
2019-01-19T16:52:41.264Z,101477.60
2019-01-19T16:55:49.375Z,101477.45
2019-01-19T16:59:28.523Z,101474.52
2019-01-19T17:02:40.267Z,101471.66
2019-01-19T17:05:36.597Z,101477.39
2019-01-19T17:09:25.022Z,101472.27
2019-01-19T17:12:43.247Z,101467.28
2019-01-19T17:16:22.984Z,101468.80
2019-01-19T17:19:33.914Z,101466.16
2019-01-19T17:22:38.091Z,101466.98
2019-01-19T17:26:12.497Z,101468.13
2019-01-19T17:29:36.337Z,101478.52
2019-01-19T17:32:43.951Z,101462.79
2019-01-19T17:36:01.999Z,101462.91
2019-01-19T17:39:07.533Z,101465.45
2019-01-19T17:42:41.058Z,101467.37
2019-01-19T17:45:58.073Z,101467.03
2019-01-19T17:49:10.810Z,101460.95
2019-01-19T17:52:55.828Z,101472.95
2019-01-19T17:56:23.605Z,101465.41
2019-01-19T18:00:02.481Z,101483.22
2019-01-19T18:03:25.752Z,101480.11
2019-01-19T18:06:55.949Z,101482.13
2019-01-19T18:10:13.560Z,101474.30
2019-01-19T18:13:43.090Z,101475.16
2019-01-19T18:17:22.895Z,101469.91
2019-01-19T18:20:48.069Z,101470.28
2019-01-19T18:24:36.685Z,101475.33
2019-01-19T18:28:02.960Z,101470.94
2019-01-19T18:31:15.181Z,101464.13
2019-01-19T18:34:37.253Z,101460.45
2019-01-19T18:38:19.312Z,101464.22
2019-01-19T18:42:03.381Z,101458.02
2019-01-19T18:45:24.137Z,101469.66
2019-01-19T18:49:09.825Z,101470.89
2019-01-19T18:52:43.206Z,101470.26
2019-01-19T18:55:58.526Z,101480.36
2019-01-19T19:03:21.167Z,101484.59
2019-01-19T19:10:59.313Z,101479.86
2019-01-19T19:23:46.486Z,101477.12
2019-01-19T19:27:42.360Z,101479.31
2019-01-19T19:32:10.601Z,101478.22
2019-01-19T19:35:56.271Z,101481.41
2019-01-19T19:39:42.745Z,101478.68
2019-01-19T19:42:56.694Z,101477.81
2019-01-19T19:46:33.526Z,101474.47
2019-01-19T19:56:38.573Z,101472.75
2019-01-19T20:03:01.421Z,101470.30
2019-01-19T20:09:19.226Z,101465.65
2019-01-19T20:12:25.379Z,101471.72
2019-01-19T20:15:27.709Z,101467.23
2019-01-19T20:18:19.044Z,101470.43
2019-01-19T20:21:13.236Z,101467.70
2019-01-19T20:24:12.798Z,101470.54
2019-01-19T20:27:27.021Z,101468.09
2019-01-19T20:30:27.027Z,101476.61
2019-01-19T20:33:42.488Z,101471.73
2019-01-19T20:36:28.969Z,101469.40
2019-01-19T20:39:01.989Z,101476.32
2019-01-19T20:41:36.314Z,101472.59
2019-01-19T20:48:37.811Z,101470.73
2019-01-19T20:51:54.431Z,101465.03
2019-01-19T20:54:59.347Z,101467.77
2019-01-19T20:58:17.992Z,101462.70
2019-01-19T21:01:15.500Z,101461.72
2019-01-19T21:04:23.462Z,101462.24
2019-01-19T21:07:26.295Z,101462.73
2019-01-19T21:10:22.644Z,101462.66
2019-01-19T21:12:57.048Z,101465.11
2019-01-19T21:15:29.825Z,101455.70
2019-01-19T21:18:03.095Z,101452.75
2019-01-19T21:20:37.387Z,101452.48
2019-01-19T21:23:49.639Z,101464.08
2019-01-19T21:27:11.925Z,101455.45
2019-01-19T21:29:52.952Z,101461.74
2019-01-19T21:33:24.283Z,101458.12
2019-01-19T21:37:12.113Z,101460.20
2019-01-19T21:39:56.501Z,101459.97
2019-01-19T21:42:45.252Z,101464.59
2019-01-19T21:45:22.375Z,101460.73
2019-01-19T21:48:03.937Z,101456.38
2019-01-19T21:50:40.437Z,101466.00
2019-01-19T21:53:28.171Z,101461.52
2019-01-19T21:56:36.537Z,101460.50
2019-01-19T22:00:01.011Z,101463.05
2019-01-19T22:02:47.672Z,101455.34
2019-01-19T22:05:49.681Z,101459.19
2019-01-19T22:08:32.942Z,101456.39
2019-01-19T22:11:22.112Z,101449.19
2019-01-19T22:14:24.568Z,101454.47
2019-01-19T22:17:24.606Z,101448.41
2019-01-19T22:20:14.576Z,101450.05
2019-01-19T22:23:30.706Z,101446.36
2019-01-19T22:26:31.463Z,101437.59
2019-01-19T22:29:31.796Z,101435.28
2019-01-19T22:32:28.752Z,101433.19
2019-01-19T22:35:48.928Z,101437.88
2019-01-19T22:38:59.309Z,101432.66
2019-01-19T22:42:08.812Z,101436.06
2019-01-19T22:45:29.892Z,101432.08
2019-01-19T22:48:04.401Z,101435.80
2019-01-19T22:50:37.155Z,101430.17
2019-01-19T22:53:27.177Z,101425.44
2019-01-19T22:56:27.458Z,101426.55
2019-01-19T22:59:28.320Z,101423.74
2019-01-19T23:02:38.539Z,101422.59
2019-01-19T23:06:00.389Z,101422.92
2019-01-19T23:09:31.330Z,101425.05
2019-01-19T23:12:29.236Z,101422.97
2019-01-19T23:15:12.386Z,101412.30
2019-01-19T23:17:45.112Z,101420.92
2019-01-19T23:20:17.828Z,101416.02
2019-01-19T23:22:50.853Z,101410.83
2019-01-19T23:25:23.729Z,101404.20
2019-01-19T23:27:56.475Z,101403.18
2019-01-19T23:30:29.295Z,101396.25
2019-01-19T23:33:02.079Z,101394.70
2019-01-19T23:35:34.788Z,101403.93
2019-01-19T23:38:07.568Z,101401.78
2019-01-19T23:40:42.461Z,101400.64
2019-01-19T23:43:15.265Z,101396.63
2019-01-19T23:45:48.022Z,101400.72
2019-01-19T23:48:20.852Z,101398.57
2019-01-19T23:50:53.663Z,101393.02
2019-01-19T23:53:26.465Z,101397.73
2019-01-19T23:55:59.258Z,101392.22
2019-01-19T23:58:32.115Z,101397.61
